sensor_id;sensor_type;location;lat;lon;timestamp;pressure;altitude;pressure_sealevel;temperature;humidity
15308;BME280;7755;52.208;6.964;2024-03-23T00:54:05;100560.59;;;8.43;100.00
15308;BME280;7755;52.208;6.964;2024-03-23T00:58:40;100538.31;;;8.41;100.00
15308;BME280;7755;52.208;6.964;2024-03-23T01:03:15;100551.50;;;8.38;100.00
15308;BME280;7755;52.208;6.964;2024-03-23T01:07:50;100559.09;;;8.29;100.00
15308;BME280;7755;52.208;6.964;2024-03-23T01:12:28;100559.63;;;8.19;100.00
15308;BME280;7755;52.208;6.964;2024-03-23T01:17:03;100548.56;;;8.21;100.00
15308;BME280;7755;52.208;6.964;2024-03-23T01:21:38;100532.09;;;8.23;100.00
15308;BME280;7755;52.208;6.964;2024-03-23T01:26:13;100525.47;;;8.18;100.00
15308;BME280;7755;52.208;6.964;2024-03-23T01:30:51;100520.06;;;8.18;100.00
15308;BME280;7755;52.208;6.964;2024-03-23T01:35:26;100514.06;;;8.16;100.00
15308;BME280;7755;52.208;6.964;2024-03-23T01:40:01;100525.56;;;8.12;100.00
15308;BME280;7755;52.208;6.964;2024-03-23T01:44:36;100526.63;;;8.11;100.00
15308;BME280;7755;52.208;6.964;2024-03-23T01:49:14;100525.66;;;8.05;100.00
15308;BME280;7755;52.208;6.964;2024-03-23T01:53:50;100509.03;;;8.02;100.00
15308;BME280;7755;52.208;6.964;2024-03-23T01:58:25;100501.38;;;7.99;100.00
15308;BME280;7755;52.208;6.964;2024-03-23T02:03:00;100493.88;;;8.01;100.00
15308;BME280;7755;52.208;6.964;2024-03-23T02:07:38;100483.34;;;7.92;100.00
15308;BME280;7755;52.208;6.964;2024-03-23T02:12:13;100493.22;;;7.87;100.00
15308;BME280;7755;52.208;6.964;2024-03-23T02:16:48;100496.88;;;7.92;100.00
15308;BME280;7755;52.208;6.964;2024-03-23T02:21:23;100484.28;;;7.86;100.00
15308;BME280;7755;52.208;6.964;2024-03-23T02:26:01;100496.13;;;7.85;100.00
15308;BME280;7755;52.208;6.964;2024-03-23T02:30:37;100491.75;;;7.84;100.00
15308;BME280;7755;52.208;6.964;2024-03-23T02:35:12;100485.91;;;7.87;100.00
15308;BME280;7755;52.208;6.964;2024-03-23T02:39:46;100484.28;;;7.86;100.00
15308;BME280;7755;52.208;6.964;2024-03-23T02:44:24;100457.63;;;7.83;100.00
15308;BME280;7755;52.208;6.964;2024-03-23T02:48:59;100443.53;;;7.81;100.00
15308;BME280;7755;52.208;6.964;2024-03-23T02:53:34;100437.53;;;7.79;100.00
15308;BME280;7755;52.208;6.964;2024-03-23T02:58:09;100433.84;;;7.74;100.00
15308;BME280;7755;52.208;6.964;2024-03-23T03:02:47;100437.59;;;7.73;100.00
15308;BME280;7755;52.208;6.964;2024-03-23T03:07:22;100431.00;;;7.69;100.00
15308;BME280;7755;52.208;6.964;2024-03-23T03:11:57;100417.00;;;7.72;100.00
15308;BME280;7755;52.208;6.964;2024-03-23T03:16:32;100437.69;;;7.66;100.00
15308;BME280;7755;52.208;6.964;2024-03-23T03:21:10;100442.72;;;7.62;100.00
15308;BME280;7755;52.208;6.964;2024-03-23T03:25:45;100453.38;;;7.57;100.00
15308;BME280;7755;52.208;6.964;2024-03-23T03:30:20;100453.19;;;7.41;100.00
15308;BME280;7755;52.208;6.964;2024-03-23T03:34:55;100443.84;;;7.36;100.00
15308;BME280;7755;52.208;6.964;2024-03-23T03:39:33;100438.41;;;7.25;100.00
15308;BME280;7755;52.208;6.964;2024-03-23T03:44:08;100438.09;;;7.15;100.00
15308;BME280;7755;52.208;6.964;2024-03-23T03:48:43;100436.50;;;7.07;100.00
15308;BME280;7755;52.208;6.964;2024-03-23T03:53:18;100431.00;;;6.95;100.00
15308;BME280;7755;52.208;6.964;2024-03-23T03:57:56;100430.69;;;6.85;100.00
15308;BME280;7755;52.208;6.964;2024-03-23T04:02:31;100427.59;;;6.81;100.00
15308;BME280;7755;52.208;6.964;2024-03-23T04:07:06;100425.19;;;6.73;100.00
15308;BME280;7755;52.208;6.964;2024-03-23T04:11:41;100410.47;;;6.69;100.00
15308;BME280;7755;52.208;6.964;2024-03-23T04:16:27;100416.16;;;6.61;100.00
15308;BME280;7755;52.208;6.964;2024-03-23T04:21:03;100417.72;;;6.50;100.00
15308;BME280;7755;52.208;6.964;2024-03-23T04:25:38;100398.19;;;6.48;100.00
15308;BME280;7755;52.208;6.964;2024-03-23T04:30:13;100412.16;;;6.45;100.00
15308;BME280;7755;52.208;6.964;2024-03-23T04:34:51;100415.72;;;6.39;100.00
15308;BME280;7755;52.208;6.964;2024-03-23T04:39:26;100412.84;;;6.34;100.00
15308;BME280;7755;52.208;6.964;2024-03-23T04:44:01;100407.69;;;6.33;100.00
15308;BME280;7755;52.208;6.964;2024-03-23T04:48:36;100410.81;;;6.29;100.00
15308;BME280;7755;52.208;6.964;2024-03-23T04:53:14;100409.97;;;6.29;100.00
15308;BME280;7755;52.208;6.964;2024-03-23T04:57:49;100409.97;;;6.29;100.00
15308;BME280;7755;52.208;6.964;2024-03-23T05:02:24;100401.88;;;6.29;100.00
15308;BME280;7755;52.208;6.964;2024-03-23T05:06:59;100401.69;;;6.31;100.00
15308;BME280;7755;52.208;6.964;2024-03-23T05:11:37;100396.97;;;6.19;100.00
15308;BME280;7755;52.208;6.964;2024-03-23T05:16:12;100396.16;;;6.19;100.00
15308;BME280;7755;52.208;6.964;2024-03-23T05:20:47;100405.31;;;6.18;100.00
15308;BME280;7755;52.208;6.964;2024-03-23T05:25:22;100409.06;;;6.17;100.00
15308;BME280;7755;52.208;6.964;2024-03-23T05:30:00;100404.94;;;6.08;100.00
15308;BME280;7755;52.208;6.964;2024-03-23T05:34:35;100401.00;;;6.10;100.00
15308;BME280;7755;52.208;6.964;2024-03-23T05:39:10;100397.91;;;6.07;100.00
15308;BME280;7755;52.208;6.964;2024-03-23T05:43:45;100408.06;;;6.11;100.00
15308;BME280;7755;52.208;6.964;2024-03-23T05:48:16;100405.19;;;6.06;100.00
15308;BME280;7755;52.208;6.964;2024-03-23T05:52:44;100404.78;;;6.02;100.00
15308;BME280;7755;52.208;6.964;2024-03-23T05:57:19;100409.97;;;6.04;100.00
15308;BME280;7755;52.208;6.964;2024-03-23T06:01:54;100414.13;;;6.00;100.00
15308;BME280;7755;52.208;6.964;2024-03-23T06:06:32;100415.56;;;6.02;100.00
15308;BME280;7755;52.208;6.964;2024-03-23T06:11:07;100414.75;;;6.02;100.00
15308;BME280;7755;52.208;6.964;2024-03-23T06:15:42;100416.00;;;5.99;100.00
15308;BME280;7755;52.208;6.964;2024-03-23T06:20:17;100422.47;;;5.98;100.00
15308;BME280;7755;52.208;6.964;2024-03-23T06:24:55;100427.44;;;5.95;100.00
15308;BME280;7755;52.208;6.964;2024-03-23T06:29:30;100415.44;;;5.91;100.00
15308;BME280;7755;52.208;6.964;2024-03-23T06:34:05;100412.09;;;5.89;100.00
15308;BME280;7755;52.208;6.964;2024-03-23T06:38:40;100415.59;;;5.96;100.00
15308;BME280;7755;52.208;6.964;2024-03-23T06:43:18;100414.53;;;6.04;100.00
15308;BME280;7755;52.208;6.964;2024-03-23T06:47:53;100418.63;;;6.13;100.00
15308;BME280;7755;52.208;6.964;2024-03-23T06:52:28;100419.41;;;6.20;100.00
15308;BME280;7755;52.208;6.964;2024-03-23T06:57:04;100421.41;;;6.31;100.00
15308;BME280;7755;52.208;6.964;2024-03-23T07:01:42;100418.03;;;6.36;100.00
15308;BME280;7755;52.208;6.964;2024-03-23T07:06:17;100428.59;;;6.44;100.00
15308;BME280;7755;52.208;6.964;2024-03-23T07:10:59;100431.81;;;6.52;100.00
15308;BME280;7755;52.208;6.964;2024-03-23T07:15:34;100422.28;;;6.50;100.00
15308;BME280;7755;52.208;6.964;2024-03-23T07:20:12;100412.91;;;6.52;100.00
15308;BME280;7755;52.208;6.964;2024-03-23T07:24:48;100416.75;;;6.63;100.00
15308;BME280;7755;52.208;6.964;2024-03-23T07:29:22;100408.44;;;6.65;100.00
15308;BME280;7755;52.208;6.964;2024-03-23T07:33:57;100410.78;;;6.79;100.00
15308;BME280;7755;52.208;6.964;2024-03-23T07:38:35;100424.53;;;6.96;100.00
15308;BME280;7755;52.208;6.964;2024-03-23T07:43:10;100426.88;;;7.11;100.00
15308;BME280;7755;52.208;6.964;2024-03-23T07:47:45;100419.84;;;7.28;100.00
15308;BME280;7755;52.208;6.964;2024-03-23T07:52:20;100416.00;;;7.36;100.00
15308;BME280;7755;52.208;6.964;2024-03-23T07:56:51;100404.78;;;7.51;100.00
15308;BME280;7755;52.208;6.964;2024-03-23T08:01:19;100401.56;;;7.72;100.00
15308;BME280;7755;52.208;6.964;2024-03-23T08:05:54;100406.38;;;7.88;100.00
15308;BME280;7755;52.208;6.964;2024-03-23T08:10:29;100412.38;;;7.90;100.00
15308;BME280;7755;52.208;6.964;2024-03-23T08:15:08;100401.19;;;7.87;100.00
15308;BME280;7755;52.208;6.964;2024-03-23T08:19:42;100397.47;;;8.00;100.00
15308;BME280;7755;52.208;6.964;2024-03-23T08:24:17;100399.09;;;8.01;100.00
15308;BME280;7755;52.208;6.964;2024-03-23T08:28:52;100411.22;;;7.98;100.00
15308;BME280;7755;52.208;6.964;2024-03-23T08:33:30;100405.69;;;8.05;100.00
15308;BME280;7755;52.208;6.964;2024-03-23T08:38:05;100397.84;;;8.15;100.00
15308;BME280;7755;52.208;6.964;2024-03-23T08:42:40;100412.56;;;8.19;100.00
15308;BME280;7755;52.208;6.964;2024-03-23T08:47:16;100398.47;;;8.29;100.00
15308;BME280;7755;52.208;6.964;2024-03-23T08:51:53;100409.97;;;8.54;100.00
15308;BME280;7755;52.208;6.964;2024-03-23T08:56:28;100399.59;;;8.74;100.00
15308;BME280;7755;52.208;6.964;2024-03-23T09:01:08;100400.19;;;8.88;100.00
15308;BME280;7755;52.208;6.964;2024-03-23T09:05:43;100394.50;;;8.66;100.00
15308;BME280;7755;52.208;6.964;2024-03-23T09:10:21;100401.94;;;8.47;100.00
15308;BME280;7755;52.208;6.964;2024-03-23T09:14:56;100400.25;;;8.35;100.00
15308;BME280;7755;52.208;6.964;2024-03-23T09:19:31;100396.72;;;8.34;100.00
15308;BME280;7755;52.208;6.964;2024-03-23T09:24:07;100386.44;;;8.13;100.00
15308;BME280;7755;52.208;6.964;2024-03-23T09:28:44;100392.06;;;8.00;100.00
15308;BME280;7755;52.208;6.964;2024-03-23T09:33:19;100390.47;;;7.92;100.00
15308;BME280;7755;52.208;6.964;2024-03-23T09:37:54;100390.16;;;8.00;100.00
15308;BME280;7755;52.208;6.964;2024-03-23T09:42:29;100388.41;;;8.47;100.00
15308;BME280;7755;52.208;6.964;2024-03-23T09:47:08;100380.13;;;9.01;100.00
15308;BME280;7755;52.208;6.964;2024-03-23T09:51:42;100376.69;;;8.94;100.00
15308;BME280;7755;52.208;6.964;2024-03-23T09:56:17;100372.19;;;9.11;100.00
15308;BME280;7755;52.208;6.964;2024-03-23T10:00:52;100378.06;;;9.20;100.00
15308;BME280;7755;52.208;6.964;2024-03-23T10:05:23;100358.19;;;9.02;100.00
15308;BME280;7755;52.208;6.964;2024-03-23T10:09:51;100356.69;;;8.83;100.00
15308;BME280;7755;52.208;6.964;2024-03-23T10:14:29;100352.91;;;8.96;100.00
15308;BME280;7755;52.208;6.964;2024-03-23T10:19:05;100354.16;;;9.05;100.00
15308;BME280;7755;52.208;6.964;2024-03-23T10:23:43;100342.34;;;9.23;100.00
15308;BME280;7755;52.208;6.964;2024-03-23T10:28:18;100342.59;;;9.50;100.00
15308;BME280;7755;52.208;6.964;2024-03-23T10:33:06;100340.19;;;9.82;98.84
15308;BME280;7755;52.208;6.964;2024-03-23T10:37:41;100340.53;;;9.69;94.00
15308;BME280;7755;52.208;6.964;2024-03-23T10:42:20;100344.00;;;9.52;95.51
15308;BME280;7755;52.208;6.964;2024-03-23T10:46:55;100336.63;;;9.36;91.47
15308;BME280;7755;52.208;6.964;2024-03-23T10:51:30;100332.00;;;9.48;92.37
15308;BME280;7755;52.208;6.964;2024-03-23T10:56:07;100331.16;;;9.76;94.01
15308;BME280;7755;52.208;6.964;2024-03-23T11:00:45;100331.66;;;9.90;93.74
15308;BME280;7755;52.208;6.964;2024-03-23T11:05:30;100318.59;;;10.37;92.79
15308;BME280;7755;52.208;6.964;2024-03-23T11:10:25;100326.81;;;10.59;92.22
15308;BME280;7755;52.208;6.964;2024-03-23T11:15:02;100332.53;;;10.24;82.74
15308;BME280;7755;52.208;6.964;2024-03-23T11:19:41;100338.81;;;10.13;83.83
15308;BME280;7755;52.208;6.964;2024-03-23T11:24:16;100359.88;;;9.89;80.16
15308;BME280;7755;52.208;6.964;2024-03-23T11:29:08;100365.59;;;9.47;80.31
15308;BME280;7755;52.208;6.964;2024-03-23T11:33:43;100349.94;;;10.11;81.84
15308;BME280;7755;52.208;6.964;2024-03-23T11:38:21;100347.03;;;10.69;76.82
15308;BME280;7755;52.208;6.964;2024-03-23T11:42:57;100379.28;;;10.26;81.91
15308;BME280;7755;52.208;6.964;2024-03-23T11:47:32;100365.16;;;9.39;91.70
15308;BME280;7755;52.208;6.964;2024-03-23T11:52:07;100363.09;;;9.17;96.70
15308;BME280;7755;52.208;6.964;2024-03-23T11:56:56;100369.06;;;8.91;97.25
15308;BME280;7755;52.208;6.964;2024-03-23T12:01:31;100348.50;;;9.47;98.45
15308;BME280;7755;52.208;6.964;2024-03-23T12:06:06;100347.03;;;10.01;92.18
15308;BME280;7755;52.208;6.964;2024-03-23T12:10:44;100332.72;;;9.89;88.67
15308;BME280;7755;52.208;6.964;2024-03-23T12:15:22;100342.00;;;9.48;87.25
15308;BME280;7755;52.208;6.964;2024-03-23T12:19:57;100335.19;;;9.05;93.02
15308;BME280;7755;52.208;6.964;2024-03-23T12:24:33;100326.56;;;9.48;95.21
15308;BME280;7755;52.208;6.964;2024-03-23T12:29:07;100325.81;;;10.15;95.45
15308;BME280;7755;52.208;6.964;2024-03-23T12:33:45;100303.41;;;10.58;89.37
15308;BME280;7755;52.208;6.964;2024-03-23T12:38:20;100305.34;;;10.24;90.96
15308;BME280;7755;52.208;6.964;2024-03-23T12:42:55;100313.13;;;10.21;93.46
15308;BME280;7755;52.208;6.964;2024-03-23T12:47:30;100317.44;;;9.54;99.92
15308;BME280;7755;52.208;6.964;2024-03-23T12:52:08;100307.50;;;9.03;100.00
15308;BME280;7755;52.208;6.964;2024-03-23T12:56:43;100308.63;;;9.47;100.00
15308;BME280;7755;52.208;6.964;2024-03-23T13:01:18;100295.19;;;9.86;96.69
15308;BME280;7755;52.208;6.964;2024-03-23T13:05:53;100303.38;;;10.03;95.25
15308;BME280;7755;52.208;6.964;2024-03-23T13:10:24;100304.66;;;9.83;95.56
15308;BME280;7755;52.208;6.964;2024-03-23T13:15:00;100298.28;;;10.23;98.02
15308;BME280;7755;52.208;6.964;2024-03-23T13:19:34;100300.38;;;10.21;91.76
15308;BME280;7755;52.208;6.964;2024-03-23T13:24:09;100288.94;;;10.36;93.67
15308;BME280;7755;52.208;6.964;2024-03-23T13:28:47;100283.03;;;11.00;95.23
15308;BME280;7755;52.208;6.964;2024-03-23T13:33:22;100276.94;;;11.41;90.73
15308;BME280;7755;52.208;6.964;2024-03-23T13:37:57;100281.22;;;11.32;82.46
15308;BME280;7755;52.208;6.964;2024-03-23T13:42:32;100274.13;;;11.09;80.20
15308;BME280;7755;52.208;6.964;2024-03-23T13:47:10;100268.09;;;10.80;80.63
15308;BME280;7755;52.208;6.964;2024-03-23T13:51:46;100270.72;;;10.97;84.94
15308;BME280;7755;52.208;6.964;2024-03-23T13:56:21;100266.75;;;11.05;75.58
15308;BME280;7755;52.208;6.964;2024-03-23T14:00:57;100280.13;;;10.84;66.77
15308;BME280;7755;52.208;6.964;2024-03-23T14:05:35;100275.03;;;10.93;64.33
15308;BME280;7755;52.208;6.964;2024-03-23T14:10:10;100271.31;;;10.77;68.48
15308;BME280;7755;52.208;6.964;2024-03-23T14:14:45;100270.34;;;10.88;72.44
15308;BME280;7755;52.208;6.964;2024-03-23T14:19:20;100271.63;;;11.25;69.46
15308;BME280;7755;52.208;6.964;2024-03-23T14:23:58;100253.13;;;11.54;62.91
15308;BME280;7755;52.208;6.964;2024-03-23T14:28:33;100242.44;;;11.47;61.78
15308;BME280;7755;52.208;6.964;2024-03-23T14:33:08;100261.69;;;11.13;60.78
15308;BME280;7755;52.208;6.964;2024-03-23T14:37:43;100281.75;;;10.85;62.30
15308;BME280;7755;52.208;6.964;2024-03-23T14:42:21;100281.47;;;10.26;61.30
15308;BME280;7755;52.208;6.964;2024-03-23T14:46:56;100293.56;;;9.85;71.28
15308;BME280;7755;52.208;6.964;2024-03-23T14:51:32;100291.31;;;9.65;79.10
15308;BME280;7755;52.208;6.964;2024-03-23T14:56:08;100272.56;;;9.64;86.22
15308;BME280;7755;52.208;6.964;2024-03-23T15:00:46;100271.97;;;9.95;81.11
15308;BME280;7755;52.208;6.964;2024-03-23T15:05:21;100253.75;;;10.24;80.15
15308;BME280;7755;52.208;6.964;2024-03-23T15:09:56;100276.69;;;10.33;79.72
15308;BME280;7755;52.208;6.964;2024-03-23T15:14:31;100285.34;;;10.30;81.00
15308;BME280;7755;52.208;6.964;2024-03-23T15:19:09;100278.09;;;9.85;82.17
15308;BME280;7755;52.208;6.964;2024-03-23T15:23:37;100273.78;;;9.56;81.37
15308;BME280;7755;52.208;6.964;2024-03-23T15:28:06;100266.00;;;9.48;82.98
15308;BME280;7755;52.208;6.964;2024-03-23T15:32:40;100270.97;;;9.68;83.53
15308;BME280;7755;52.208;6.964;2024-03-23T15:37:18;100263.13;;;9.83;82.15
15308;BME280;7755;52.208;6.964;2024-03-23T15:41:53;100248.47;;;9.84;80.10
15308;BME280;7755;52.208;6.964;2024-03-23T15:46:28;100253.06;;;9.83;75.86
15308;BME280;7755;52.208;6.964;2024-03-23T15:51:04;100264.91;;;9.77;74.71
15308;BME280;7755;52.208;6.964;2024-03-23T15:55:42;100263.34;;;9.65;77.72
15308;BME280;7755;52.208;6.964;2024-03-23T16:00:18;100273.06;;;9.32;73.01
15308;BME280;7755;52.208;6.964;2024-03-23T16:04:52;100264.41;;;9.18;73.34
15308;BME280;7755;52.208;6.964;2024-03-23T16:09:27;100262.50;;;9.19;72.52
15308;BME280;7755;52.208;6.964;2024-03-23T16:14:05;100260.03;;;9.17;73.10
15308;BME280;7755;52.208;6.964;2024-03-23T16:18:40;100249.28;;;9.22;74.22
15308;BME280;7755;52.208;6.964;2024-03-23T16:23:15;100245.50;;;9.23;73.41
15308;BME280;7755;52.208;6.964;2024-03-23T16:27:50;100241.53;;;9.14;73.69
15308;BME280;7755;52.208;6.964;2024-03-23T16:32:28;100246.78;;;9.04;74.90
15308;BME280;7755;52.208;6.964;2024-03-23T16:37:03;100231.47;;;8.98;76.81
15308;BME280;7755;52.208;6.964;2024-03-23T16:41:38;100239.75;;;8.91;78.24
15308;BME280;7755;52.208;6.964;2024-03-23T16:46:14;100237.53;;;8.88;79.35
15308;BME280;7755;52.208;6.964;2024-03-23T16:50:52;100231.84;;;8.90;80.20
15308;BME280;7755;52.208;6.964;2024-03-23T16:55:27;100252.38;;;8.86;80.82
15308;BME280;7755;52.208;6.964;2024-03-23T17:00:03;100267.94;;;8.79;82.94
15308;BME280;7755;52.208;6.964;2024-03-23T17:04:38;100288.56;;;7.98;88.23
15308;BME280;7755;52.208;6.964;2024-03-23T17:09:16;100255.13;;;7.27;96.02
15308;BME280;7755;52.208;6.964;2024-03-23T17:13:51;100250.97;;;7.13;99.56
15308;BME280;7755;52.208;6.964;2024-03-23T17:18:27;100262.69;;;7.06;100.00
15308;BME280;7755;52.208;6.964;2024-03-23T17:23:01;100257.81;;;6.97;100.00
15308;BME280;7755;52.208;6.964;2024-03-23T17:27:39;100261.88;;;6.88;100.00
15308;BME280;7755;52.208;6.964;2024-03-23T17:32:14;100255.66;;;6.87;100.00
15308;BME280;7755;52.208;6.964;2024-03-23T17:36:49;100251.97;;;6.81;100.00
15308;BME280;7755;52.208;6.964;2024-03-23T17:41:24;100256.72;;;6.86;100.00
15308;BME280;7755;52.208;6.964;2024-03-23T17:46:02;100252.94;;;6.87;100.00
15308;BME280;7755;52.208;6.964;2024-03-23T17:50:37;100252.38;;;6.85;100.00
15308;BME280;7755;52.208;6.964;2024-03-23T17:55:06;100251.97;;;6.81;100.00
15308;BME280;7755;52.208;6.964;2024-03-23T17:59:41;100243.81;;;6.70;100.00
15308;BME280;7755;52.208;6.964;2024-03-23T18:04:28;100246.47;;;6.58;100.00
15308;BME280;7755;52.208;6.964;2024-03-23T18:08:56;100250.06;;;6.52;100.00
15308;BME280;7755;52.208;6.964;2024-03-23T18:13:31;100253.94;;;6.38;100.00
15308;BME280;7755;52.208;6.964;2024-03-23T18:18:06;100262.31;;;6.29;100.00
15308;BME280;7755;52.208;6.964;2024-03-23T18:22:45;100267.66;;;6.18;100.00
15308;BME280;7755;52.208;6.964;2024-03-23T18:27:20;100278.78;;;6.03;100.00
15308;BME280;7755;52.208;6.964;2024-03-23T18:31:55;100279.06;;;5.88;100.00
15308;BME280;7755;52.208;6.964;2024-03-23T18:36:30;100277.06;;;5.84;100.00
15308;BME280;7755;52.208;6.964;2024-03-23T18:41:08;100289.72;;;5.83;100.00
15308;BME280;7755;52.208;6.964;2024-03-23T18:45:47;100282.94;;;5.74;100.00
15308;BME280;7755;52.208;6.964;2024-03-23T18:50:22;100286.13;;;5.64;100.00
15308;BME280;7755;52.208;6.964;2024-03-23T18:54:57;100277.06;;;5.52;100.00
15308;BME280;7755;52.208;6.964;2024-03-23T18:59:35;100284.97;;;5.47;100.00
15308;BME280;7755;52.208;6.964;2024-03-23T19:04:11;100275.84;;;5.48;100.00
15308;BME280;7755;52.208;6.964;2024-03-23T19:08:46;100282.72;;;5.44;100.00
15308;BME280;7755;52.208;6.964;2024-03-23T19:13:22;100272.38;;;5.41;100.00
15308;BME280;7755;52.208;6.964;2024-03-23T19:18:00;100263.03;;;5.43;100.00
15308;BME280;7755;52.208;6.964;2024-03-23T19:22:36;100279.00;;;5.45;100.00
15308;BME280;7755;52.208;6.964;2024-03-23T19:27:10;100272.53;;;5.46;100.00
15308;BME280;7755;52.208;6.964;2024-03-23T19:31:45;100263.38;;;5.54;100.00
15308;BME280;7755;52.208;6.964;2024-03-23T19:36:23;100255.22;;;5.60;100.00
15308;BME280;7755;52.208;6.964;2024-03-23T19:40:58;100251.66;;;5.66;100.00
15308;BME280;7755;52.208;6.964;2024-03-23T19:45:33;100259.94;;;5.71;100.00
15308;BME280;7755;52.208;6.964;2024-03-23T19:50:08;100256.22;;;5.66;100.00
15308;BME280;7755;52.208;6.964;2024-03-23T19:54:46;100253.16;;;5.62;100.00
15308;BME280;7755;52.208;6.964;2024-03-23T19:59:21;100241.53;;;5.62;100.00
15308;BME280;7755;52.208;6.964;2024-03-23T20:03:56;100237.34;;;5.66;100.00
15308;BME280;7755;52.208;6.964;2024-03-23T20:08:31;100237.41;;;5.59;100.00
15308;BME280;7755;52.208;6.964;2024-03-23T20:13:09;100230.78;;;5.55;100.00
15308;BME280;7755;52.208;6.964;2024-03-23T20:17:44;100232.47;;;5.56;100.00
15308;BME280;7755;52.208;6.964;2024-03-23T20:22:19;100221.06;;;5.54;100.00
15308;BME280;7755;52.208;6.964;2024-03-23T20:26:54;100213.59;;;5.56;100.00
15308;BME280;7755;52.208;6.964;2024-03-23T20:31:32;100213.59;;;5.56;100.00
15308;BME280;7755;52.208;6.964;2024-03-23T20:36:07;100217.75;;;5.52;100.00
15308;BME280;7755;52.208;6.964;2024-03-23T20:40:42;100201.81;;;5.51;100.00
15308;BME280;7755;52.208;6.964;2024-03-23T20:45:17;100203.50;;;5.45;100.00
15308;BME280;7755;52.208;6.964;2024-03-23T20:49:55;100205.78;;;5.41;100.00
15308;BME280;7755;52.208;6.964;2024-03-23T20:54:31;100199.81;;;5.39;100.00
15308;BME280;7755;52.208;6.964;2024-03-23T20:59:06;100197.16;;;5.33;100.00
15308;BME280;7755;52.208;6.964;2024-03-23T21:03:41;100191.78;;;5.33;100.00
15308;BME280;7755;52.208;6.964;2024-03-23T21:08:19;100186.94;;;5.41;100.00
15308;BME280;7755;52.208;6.964;2024-03-23T21:12:54;100185.09;;;5.42;100.00
15308;BME280;7755;52.208;6.964;2024-03-23T21:17:29;100169.38;;;5.32;100.00
15308;BME280;7755;52.208;6.964;2024-03-23T21:22:04;100172.94;;;5.26;100.00
15308;BME280;7755;52.208;6.964;2024-03-23T21:26:42;100168.88;;;5.17;100.00
15308;BME280;7755;52.208;6.964;2024-03-23T21:31:17;100155.47;;;5.10;100.00
15308;BME280;7755;52.208;6.964;2024-03-23T21:35:55;100154.41;;;5.11;100.00
15308;BME280;7755;52.208;6.964;2024-03-23T21:40:30;100156.38;;;4.98;100.00
15308;BME280;7755;52.208;6.964;2024-03-23T21:45:08;100145.88;;;4.89;100.00
15308;BME280;7755;52.208;6.964;2024-03-23T21:49:43;100148.97;;;4.86;100.00
15308;BME280;7755;52.208;6.964;2024-03-23T21:54:18;100141.72;;;4.87;100.00
15308;BME280;7755;52.208;6.964;2024-03-23T21:58:53;100143.47;;;4.75;100.00
15308;BME280;7755;52.208;6.964;2024-03-23T22:03:31;100142.19;;;4.77;100.00
15308;BME280;7755;52.208;6.964;2024-03-23T22:08:07;100128.75;;;4.77;100.00
15308;BME280;7755;52.208;6.964;2024-03-23T22:12:43;100120.88;;;4.76;100.00
15308;BME280;7755;52.208;6.964;2024-03-23T22:17:18;100114.69;;;4.75;100.00
15308;BME280;7755;52.208;6.964;2024-03-23T22:21:56;100110.97;;;4.70;100.00
15308;BME280;7755;52.208;6.964;2024-03-23T22:26:31;100107.00;;;4.72;100.00
15308;BME280;7755;52.208;6.964;2024-03-23T22:31:06;100099.94;;;4.78;100.00
15308;BME280;7755;52.208;6.964;2024-03-23T22:35:44;100089.56;;;4.81;100.00
15308;BME280;7755;52.208;6.964;2024-03-23T22:40:22;100102.59;;;4.84;100.00
15308;BME280;7755;52.208;6.964;2024-03-23T22:44:57;100084.13;;;4.88;100.00
15308;BME280;7755;52.208;6.964;2024-03-23T22:49:32;100077.69;;;4.89;100.00
15308;BME280;7755;52.208;6.964;2024-03-23T22:54:08;100072.38;;;4.82;100.00
15308;BME280;7755;52.208;6.964;2024-03-23T22:58:46;100062.63;;;4.81;100.00
15308;BME280;7755;52.208;6.964;2024-03-23T23:03:21;100054.97;;;4.78;100.00
15308;BME280;7755;52.208;6.964;2024-03-23T23:07:56;100047.72;;;4.79;100.00
15308;BME280;7755;52.208;6.964;2024-03-23T23:12:31;100041.56;;;4.72;100.00
15308;BME280;7755;52.208;6.964;2024-03-23T23:17:09;100049.47;;;4.66;100.00
15308;BME280;7755;52.208;6.964;2024-03-23T23:21:44;100035.41;;;4.64;100.00
15308;BME280;7755;52.208;6.964;2024-03-23T23:26:19;100027.34;;;4.64;100.00
15308;BME280;7755;52.208;6.964;2024-03-23T23:31:01;100019.84;;;4.66;100.00
15308;BME280;7755;52.208;6.964;2024-03-23T23:35:41;100015.69;;;4.71;100.00
15308;BME280;7755;52.208;6.964;2024-03-23T23:40:16;100004.88;;;4.77;100.00
15308;BME280;7755;52.208;6.964;2024-03-23T23:44:51;100011.13;;;4.71;100.00
15308;BME280;7755;52.208;6.964;2024-03-23T23:49:26;100000.34;;;4.71;100.00
15308;BME280;7755;52.208;6.964;2024-03-23T23:54:04;100002.41;;;4.76;100.00
15308;BME280;7755;52.208;6.964;2024-03-23T23:58:40;99983.59;;;4.69;100.00
